sensor_id;sensor_type;location;lat;lon;timestamp;P1;durP1;ratioP1;P2;durP2;ratioP2
69172;SDS011;56280;49.662;8.408;2024-03-02T00:00:34;28.30;;;25.70;;
69172;SDS011;56280;49.662;8.408;2024-03-02T00:02:59;31.70;;;28.93;;
69172;SDS011;56280;49.662;8.408;2024-03-02T00:05:24;30.60;;;27.93;;
69172;SDS011;56280;49.662;8.408;2024-03-02T00:07:54;29.38;;;26.77;;
69172;SDS011;56280;49.662;8.408;2024-03-02T00:10:26;29.70;;;27.05;;
69172;SDS011;56280;49.662;8.408;2024-03-02T00:12:56;29.98;;;27.10;;
69172;SDS011;56280;49.662;8.408;2024-03-02T00:18:12;32.35;;;29.45;;
69172;SDS011;56280;49.662;8.408;2024-03-02T00:20:45;33.20;;;29.98;;
69172;SDS011;56280;49.662;8.408;2024-03-02T00:23:11;31.20;;;28.50;;
69172;SDS011;56280;49.662;8.408;2024-03-02T00:25:44;30.02;;;27.42;;
69172;SDS011;56280;49.662;8.408;2024-03-02T00:28:13;29.97;;;27.27;;
69172;SDS011;56280;49.662;8.408;2024-03-02T00:33:21;30.77;;;27.98;;
69172;SDS011;56280;49.662;8.408;2024-03-02T00:35:47;29.60;;;27.20;;
69172;SDS011;56280;49.662;8.408;2024-03-02T00:38:13;30.08;;;27.30;;
69172;SDS011;56280;49.662;8.408;2024-03-02T00:40:40;32.25;;;29.42;;
69172;SDS011;56280;49.662;8.408;2024-03-02T00:43:06;31.48;;;28.67;;
69172;SDS011;56280;49.662;8.408;2024-03-02T00:45:54;32.33;;;29.25;;
69172;SDS011;56280;49.662;8.408;2024-03-02T00:48:19;37.47;;;33.57;;
69172;SDS011;56280;49.662;8.408;2024-03-02T00:50:44;34.92;;;31.27;;
69172;SDS011;56280;49.662;8.408;2024-03-02T00:53:11;33.83;;;30.55;;
69172;SDS011;56280;49.662;8.408;2024-03-02T00:55:37;32.05;;;28.95;;
69172;SDS011;56280;49.662;8.408;2024-03-02T00:58:03;33.42;;;30.25;;
69172;SDS011;56280;49.662;8.408;2024-03-02T01:00:29;32.20;;;29.10;;
69172;SDS011;56280;49.662;8.408;2024-03-02T01:02:54;30.57;;;27.60;;
69172;SDS011;56280;49.662;8.408;2024-03-02T01:05:19;34.13;;;30.73;;
69172;SDS011;56280;49.662;8.408;2024-03-02T01:07:45;34.37;;;31.27;;
69172;SDS011;56280;49.662;8.408;2024-03-02T01:10:10;34.23;;;31.03;;
69172;SDS011;56280;49.662;8.408;2024-03-02T01:12:35;33.57;;;30.33;;
69172;SDS011;56280;49.662;8.408;2024-03-02T01:15:01;34.00;;;30.70;;
69172;SDS011;56280;49.662;8.408;2024-03-02T01:17:26;32.27;;;29.03;;
69172;SDS011;56280;49.662;8.408;2024-03-02T01:19:51;31.10;;;28.10;;
69172;SDS011;56280;49.662;8.408;2024-03-02T01:22:16;35.73;;;32.13;;
69172;SDS011;56280;49.662;8.408;2024-03-02T01:24:44;36.35;;;32.53;;
69172;SDS011;56280;49.662;8.408;2024-03-02T01:27:10;36.43;;;32.77;;
69172;SDS011;56280;49.662;8.408;2024-03-02T01:29:35;33.40;;;30.37;;
69172;SDS011;56280;49.662;8.408;2024-03-02T01:32:00;35.33;;;32.13;;
69172;SDS011;56280;49.662;8.408;2024-03-02T01:34:25;36.07;;;32.73;;
69172;SDS011;56280;49.662;8.408;2024-03-02T01:36:51;35.33;;;32.07;;
69172;SDS011;56280;49.662;8.408;2024-03-02T01:39:16;37.57;;;34.10;;
69172;SDS011;56280;49.662;8.408;2024-03-02T01:41:41;35.20;;;31.90;;
69172;SDS011;56280;49.662;8.408;2024-03-02T01:44:07;34.87;;;31.57;;
69172;SDS011;56280;49.662;8.408;2024-03-02T01:46:32;35.13;;;31.93;;
69172;SDS011;56280;49.662;8.408;2024-03-02T01:48:57;34.93;;;31.57;;
69172;SDS011;56280;49.662;8.408;2024-03-02T01:51:22;33.33;;;30.27;;
69172;SDS011;56280;49.662;8.408;2024-03-02T01:53:48;33.00;;;30.10;;
69172;SDS011;56280;49.662;8.408;2024-03-02T01:56:13;33.03;;;30.13;;
69172;SDS011;56280;49.662;8.408;2024-03-02T01:58:39;33.10;;;29.90;;
69172;SDS011;56280;49.662;8.408;2024-03-02T02:01:04;29.60;;;26.90;;
69172;SDS011;56280;49.662;8.408;2024-03-02T02:03:29;29.97;;;27.37;;
69172;SDS011;56280;49.662;8.408;2024-03-02T02:05:55;31.93;;;29.03;;
69172;SDS011;56280;49.662;8.408;2024-03-02T02:08:20;30.13;;;27.43;;
69172;SDS011;56280;49.662;8.408;2024-03-02T02:10:45;31.20;;;28.33;;
69172;SDS011;56280;49.662;8.408;2024-03-02T02:13:11;31.47;;;28.43;;
69172;SDS011;56280;49.662;8.408;2024-03-02T02:15:36;30.67;;;27.77;;
69172;SDS011;56280;49.662;8.408;2024-03-02T02:18:01;32.38;;;29.40;;
69172;SDS011;56280;49.662;8.408;2024-03-02T02:20:27;29.27;;;26.53;;
69172;SDS011;56280;49.662;8.408;2024-03-02T02:22:59;32.40;;;29.20;;
69172;SDS011;56280;49.662;8.408;2024-03-02T02:25:25;31.95;;;29.08;;
69172;SDS011;56280;49.662;8.408;2024-03-02T02:27:52;33.70;;;30.65;;
69172;SDS011;56280;49.662;8.408;2024-03-02T02:30:21;30.17;;;27.20;;
69172;SDS011;56280;49.662;8.408;2024-03-02T02:32:47;31.98;;;28.83;;
69172;SDS011;56280;49.662;8.408;2024-03-02T02:35:13;31.33;;;28.13;;
69172;SDS011;56280;49.662;8.408;2024-03-02T02:37:38;32.20;;;29.25;;
69172;SDS011;56280;49.662;8.408;2024-03-02T02:40:04;32.75;;;29.73;;
69172;SDS011;56280;49.662;8.408;2024-03-02T02:42:29;33.50;;;30.27;;
69172;SDS011;56280;49.662;8.408;2024-03-02T02:44:55;32.77;;;29.57;;
69172;SDS011;56280;49.662;8.408;2024-03-02T02:47:20;32.37;;;29.17;;
69172;SDS011;56280;49.662;8.408;2024-03-02T02:49:45;35.13;;;31.83;;
69172;SDS011;56280;49.662;8.408;2024-03-02T02:52:11;34.03;;;30.70;;
69172;SDS011;56280;49.662;8.408;2024-03-02T02:54:37;32.47;;;29.23;;
69172;SDS011;56280;49.662;8.408;2024-03-02T02:57:02;31.48;;;28.40;;
69172;SDS011;56280;49.662;8.408;2024-03-02T02:59:28;32.37;;;29.03;;
69172;SDS011;56280;49.662;8.408;2024-03-02T03:01:53;33.47;;;29.83;;
69172;SDS011;56280;49.662;8.408;2024-03-02T03:04:19;33.73;;;30.33;;
69172;SDS011;56280;49.662;8.408;2024-03-02T03:06:44;32.93;;;29.47;;
69172;SDS011;56280;49.662;8.408;2024-03-02T03:09:09;36.77;;;33.03;;
69172;SDS011;56280;49.662;8.408;2024-03-02T03:11:36;34.03;;;30.60;;
69172;SDS011;56280;49.662;8.408;2024-03-02T03:14:01;33.50;;;30.00;;
69172;SDS011;56280;49.662;8.408;2024-03-02T03:16:26;36.33;;;32.83;;
69172;SDS011;56280;49.662;8.408;2024-03-02T03:18:51;34.90;;;31.40;;
69172;SDS011;56280;49.662;8.408;2024-03-02T03:21:18;36.33;;;32.45;;
69172;SDS011;56280;49.662;8.408;2024-03-02T03:23:43;35.07;;;31.57;;
69172;SDS011;56280;49.662;8.408;2024-03-02T03:26:09;37.23;;;33.67;;
69172;SDS011;56280;49.662;8.408;2024-03-02T03:28:34;33.73;;;30.43;;
69172;SDS011;56280;49.662;8.408;2024-03-02T03:30:59;38.60;;;34.80;;
69172;SDS011;56280;49.662;8.408;2024-03-02T03:33:24;38.07;;;34.10;;
69172;SDS011;56280;49.662;8.408;2024-03-02T03:35:49;36.43;;;32.73;;
69172;SDS011;56280;49.662;8.408;2024-03-02T03:38:15;36.20;;;32.33;;
69172;SDS011;56280;49.662;8.408;2024-03-02T03:40:40;38.27;;;32.80;;
69172;SDS011;56280;49.662;8.408;2024-03-02T03:43:05;41.50;;;37.33;;
69172;SDS011;56280;49.662;8.408;2024-03-02T03:45:31;36.27;;;32.77;;
69172;SDS011;56280;49.662;8.408;2024-03-02T03:47:56;36.83;;;33.27;;
69172;SDS011;56280;49.662;8.408;2024-03-02T03:50:21;37.17;;;33.60;;
69172;SDS011;56280;49.662;8.408;2024-03-02T03:52:47;36.07;;;32.43;;
69172;SDS011;56280;49.662;8.408;2024-03-02T03:55:12;34.57;;;31.27;;
69172;SDS011;56280;49.662;8.408;2024-03-02T03:57:37;37.37;;;33.87;;
69172;SDS011;56280;49.662;8.408;2024-03-02T04:00:03;35.33;;;31.87;;
69172;SDS011;56280;49.662;8.408;2024-03-02T04:02:29;31.73;;;28.63;;
69172;SDS011;56280;49.662;8.408;2024-03-02T04:04:54;31.07;;;28.47;;
69172;SDS011;56280;49.662;8.408;2024-03-02T04:07:19;30.00;;;27.27;;
69172;SDS011;56280;49.662;8.408;2024-03-02T04:09:44;30.48;;;27.48;;
69172;SDS011;56280;49.662;8.408;2024-03-02T04:12:10;33.57;;;30.57;;
69172;SDS011;56280;49.662;8.408;2024-03-02T04:14:35;32.53;;;29.33;;
69172;SDS011;56280;49.662;8.408;2024-03-02T04:17:00;30.13;;;27.23;;
69172;SDS011;56280;49.662;8.408;2024-03-02T04:19:25;30.87;;;27.87;;
69172;SDS011;56280;49.662;8.408;2024-03-02T04:21:51;28.20;;;25.70;;
69172;SDS011;56280;49.662;8.408;2024-03-02T04:24:16;39.37;;;31.70;;
69172;SDS011;56280;49.662;8.408;2024-03-02T04:26:41;77.00;;;29.27;;
69172;SDS011;56280;49.662;8.408;2024-03-02T04:29:06;119.33;;;28.43;;
69172;SDS011;56280;49.662;8.408;2024-03-02T04:31:32;74.00;;;25.50;;
69172;SDS011;56280;49.662;8.408;2024-03-02T04:33:57;86.50;;;27.53;;
69172;SDS011;56280;49.662;8.408;2024-03-02T04:36:22;67.50;;;26.80;;
69172;SDS011;56280;49.662;8.408;2024-03-02T04:38:48;36.92;;;26.15;;
69172;SDS011;56280;49.662;8.408;2024-03-02T04:41:14;29.70;;;27.17;;
69172;SDS011;56280;49.662;8.408;2024-03-02T04:43:39;28.73;;;26.20;;
69172;SDS011;56280;49.662;8.408;2024-03-02T04:46:04;36.23;;;23.87;;
69172;SDS011;56280;49.662;8.408;2024-03-02T04:48:30;28.80;;;26.45;;
69172;SDS011;56280;49.662;8.408;2024-03-02T04:50:56;43.63;;;22.05;;
69172;SDS011;56280;49.662;8.408;2024-03-02T04:53:21;27.37;;;25.23;;
69172;SDS011;56280;49.662;8.408;2024-03-02T04:55:46;28.10;;;25.90;;
69172;SDS011;56280;49.662;8.408;2024-03-02T04:58:20;29.33;;;27.02;;
69172;SDS011;56280;49.662;8.408;2024-03-02T05:00:46;27.70;;;25.40;;
69172;SDS011;56280;49.662;8.408;2024-03-02T05:03:11;27.60;;;25.30;;
69172;SDS011;56280;49.662;8.408;2024-03-02T05:05:37;30.97;;;28.50;;
69172;SDS011;56280;49.662;8.408;2024-03-02T05:08:03;28.93;;;26.53;;
69172;SDS011;56280;49.662;8.408;2024-03-02T05:10:29;28.85;;;26.45;;
69172;SDS011;56280;49.662;8.408;2024-03-02T05:12:54;31.77;;;29.08;;
69172;SDS011;56280;49.662;8.408;2024-03-02T05:15:24;34.63;;;31.60;;
69172;SDS011;56280;49.662;8.408;2024-03-02T05:17:49;35.20;;;31.97;;
69172;SDS011;56280;49.662;8.408;2024-03-02T05:20:15;32.73;;;29.83;;
69172;SDS011;56280;49.662;8.408;2024-03-02T05:22:40;34.67;;;31.43;;
69172;SDS011;56280;49.662;8.408;2024-03-02T05:25:06;36.40;;;33.00;;
69172;SDS011;56280;49.662;8.408;2024-03-02T05:27:32;36.58;;;33.08;;
69172;SDS011;56280;49.662;8.408;2024-03-02T05:29:58;36.50;;;33.27;;
69172;SDS011;56280;49.662;8.408;2024-03-02T05:32:23;34.40;;;31.30;;
69172;SDS011;56280;49.662;8.408;2024-03-02T05:34:49;36.20;;;33.00;;
69172;SDS011;56280;49.662;8.408;2024-03-02T05:37:15;32.88;;;29.77;;
69172;SDS011;56280;49.662;8.408;2024-03-02T05:39:41;36.43;;;33.03;;
69172;SDS011;56280;49.662;8.408;2024-03-02T05:42:08;36.03;;;32.53;;
69172;SDS011;56280;49.662;8.408;2024-03-02T05:44:33;40.23;;;36.07;;
69172;SDS011;56280;49.662;8.408;2024-03-02T05:46:59;36.73;;;32.97;;
69172;SDS011;56280;49.662;8.408;2024-03-02T05:49:24;38.63;;;34.73;;
69172;SDS011;56280;49.662;8.408;2024-03-02T05:51:49;36.73;;;33.13;;
69172;SDS011;56280;49.662;8.408;2024-03-02T05:54:15;35.40;;;32.00;;
69172;SDS011;56280;49.662;8.408;2024-03-02T05:56:40;35.43;;;32.03;;
69172;SDS011;56280;49.662;8.408;2024-03-02T05:59:06;37.33;;;33.50;;
69172;SDS011;56280;49.662;8.408;2024-03-02T06:01:46;34.17;;;30.60;;
69172;SDS011;56280;49.662;8.408;2024-03-02T06:04:13;35.10;;;31.80;;
69172;SDS011;56280;49.662;8.408;2024-03-02T06:06:40;37.15;;;33.58;;
69172;SDS011;56280;49.662;8.408;2024-03-02T06:09:05;35.03;;;31.63;;
69172;SDS011;56280;49.662;8.408;2024-03-02T06:11:37;34.20;;;30.87;;
69172;SDS011;56280;49.662;8.408;2024-03-02T06:14:04;36.05;;;32.58;;
69172;SDS011;56280;49.662;8.408;2024-03-02T06:16:29;35.90;;;32.40;;
69172;SDS011;56280;49.662;8.408;2024-03-02T06:18:55;36.53;;;33.13;;
69172;SDS011;56280;49.662;8.408;2024-03-02T06:21:22;39.33;;;35.57;;
69172;SDS011;56280;49.662;8.408;2024-03-02T06:23:48;36.25;;;32.50;;
69172;SDS011;56280;49.662;8.408;2024-03-02T06:26:13;35.65;;;32.05;;
69172;SDS011;56280;49.662;8.408;2024-03-02T06:28:38;33.37;;;29.87;;
69172;SDS011;56280;49.662;8.408;2024-03-02T06:31:04;31.17;;;27.93;;
69172;SDS011;56280;49.662;8.408;2024-03-02T06:33:29;32.57;;;29.37;;
69172;SDS011;56280;49.662;8.408;2024-03-02T06:35:54;35.60;;;32.17;;
69172;SDS011;56280;49.662;8.408;2024-03-02T06:38:20;36.13;;;32.73;;
69172;SDS011;56280;49.662;8.408;2024-03-02T06:40:45;34.00;;;30.50;;
69172;SDS011;56280;49.662;8.408;2024-03-02T06:43:10;38.30;;;34.23;;
69172;SDS011;56280;49.662;8.408;2024-03-02T06:45:36;37.23;;;33.27;;
69172;SDS011;56280;49.662;8.408;2024-03-02T06:48:01;36.40;;;32.80;;
69172;SDS011;56280;49.662;8.408;2024-03-02T06:50:26;38.17;;;34.33;;
69172;SDS011;56280;49.662;8.408;2024-03-02T06:52:52;37.87;;;34.00;;
69172;SDS011;56280;49.662;8.408;2024-03-02T06:55:17;34.50;;;31.20;;
69172;SDS011;56280;49.662;8.408;2024-03-02T06:57:42;35.40;;;32.03;;
69172;SDS011;56280;49.662;8.408;2024-03-02T07:00:08;34.57;;;31.17;;
69172;SDS011;56280;49.662;8.408;2024-03-02T07:02:34;34.83;;;31.37;;
69172;SDS011;56280;49.662;8.408;2024-03-02T07:04:59;36.22;;;32.72;;
69172;SDS011;56280;49.662;8.408;2024-03-02T07:07:25;37.10;;;33.43;;
69172;SDS011;56280;49.662;8.408;2024-03-02T07:09:50;36.90;;;33.43;;
69172;SDS011;56280;49.662;8.408;2024-03-02T07:12:15;36.83;;;33.17;;
69172;SDS011;56280;49.662;8.408;2024-03-02T07:14:40;37.97;;;34.33;;
69172;SDS011;56280;49.662;8.408;2024-03-02T07:17:21;35.33;;;31.85;;
69172;SDS011;56280;49.662;8.408;2024-03-02T07:19:47;36.53;;;33.00;;
69172;SDS011;56280;49.662;8.408;2024-03-02T07:22:12;35.20;;;31.80;;
69172;SDS011;56280;49.662;8.408;2024-03-02T07:24:41;35.97;;;32.47;;
69172;SDS011;56280;49.662;8.408;2024-03-02T07:27:11;35.67;;;32.33;;
69172;SDS011;56280;49.662;8.408;2024-03-02T07:29:37;36.85;;;33.28;;
69172;SDS011;56280;49.662;8.408;2024-03-02T07:32:03;36.63;;;33.13;;
69172;SDS011;56280;49.662;8.408;2024-03-02T07:34:29;36.97;;;33.47;;
69172;SDS011;56280;49.662;8.408;2024-03-02T07:36:55;34.47;;;31.07;;
69172;SDS011;56280;49.662;8.408;2024-03-02T07:39:20;35.05;;;31.83;;
69172;SDS011;56280;49.662;8.408;2024-03-02T07:41:46;35.83;;;32.53;;
69172;SDS011;56280;49.662;8.408;2024-03-02T07:44:11;34.93;;;31.40;;
69172;SDS011;56280;49.662;8.408;2024-03-02T07:46:41;39.45;;;35.75;;
69172;SDS011;56280;49.662;8.408;2024-03-02T07:49:06;36.28;;;32.42;;
69172;SDS011;56280;49.662;8.408;2024-03-02T07:51:32;37.80;;;34.17;;
69172;SDS011;56280;49.662;8.408;2024-03-02T07:53:58;39.13;;;35.30;;
69172;SDS011;56280;49.662;8.408;2024-03-02T07:56:23;35.53;;;32.13;;
69172;SDS011;56280;49.662;8.408;2024-03-02T07:58:48;37.77;;;34.17;;
69172;SDS011;56280;49.662;8.408;2024-03-02T08:01:14;41.05;;;37.15;;
69172;SDS011;56280;49.662;8.408;2024-03-02T08:03:39;39.97;;;36.03;;
69172;SDS011;56280;49.662;8.408;2024-03-02T08:06:05;39.47;;;35.50;;
69172;SDS011;56280;49.662;8.408;2024-03-02T08:08:30;40.17;;;36.20;;
69172;SDS011;56280;49.662;8.408;2024-03-02T08:10:56;40.40;;;36.43;;
69172;SDS011;56280;49.662;8.408;2024-03-02T08:13:21;41.77;;;37.67;;
69172;SDS011;56280;49.662;8.408;2024-03-02T08:15:47;39.23;;;35.17;;
69172;SDS011;56280;49.662;8.408;2024-03-02T08:18:12;40.85;;;36.97;;
69172;SDS011;56280;49.662;8.408;2024-03-02T08:20:38;40.70;;;37.00;;
69172;SDS011;56280;49.662;8.408;2024-03-02T08:23:04;39.23;;;35.63;;
69172;SDS011;56280;49.662;8.408;2024-03-02T08:25:29;38.75;;;34.85;;
69172;SDS011;56280;49.662;8.408;2024-03-02T08:27:55;37.03;;;33.53;;
69172;SDS011;56280;49.662;8.408;2024-03-02T08:30:20;36.72;;;33.22;;
69172;SDS011;56280;49.662;8.408;2024-03-02T08:32:46;39.47;;;35.87;;
69172;SDS011;56280;49.662;8.408;2024-03-02T08:35:12;38.08;;;34.55;;
69172;SDS011;56280;49.662;8.408;2024-03-02T08:37:39;36.37;;;32.87;;
69172;SDS011;56280;49.662;8.408;2024-03-02T08:40:05;37.30;;;33.55;;
69172;SDS011;56280;49.662;8.408;2024-03-02T08:42:32;35.70;;;32.50;;
69172;SDS011;56280;49.662;8.408;2024-03-02T08:44:58;39.83;;;36.33;;
69172;SDS011;56280;49.662;8.408;2024-03-02T08:47:25;36.37;;;32.97;;
69172;SDS011;56280;49.662;8.408;2024-03-02T08:49:51;34.95;;;31.75;;
69172;SDS011;56280;49.662;8.408;2024-03-02T08:52:16;34.93;;;31.63;;
69172;SDS011;56280;49.662;8.408;2024-03-02T08:54:41;33.80;;;30.73;;
69172;SDS011;56280;49.662;8.408;2024-03-02T08:57:07;33.57;;;30.23;;
69172;SDS011;56280;49.662;8.408;2024-03-02T08:59:32;35.20;;;32.00;;
69172;SDS011;56280;49.662;8.408;2024-03-02T09:01:58;32.72;;;29.77;;
69172;SDS011;56280;49.662;8.408;2024-03-02T09:04:24;35.50;;;32.13;;
69172;SDS011;56280;49.662;8.408;2024-03-02T09:06:49;31.53;;;28.53;;
69172;SDS011;56280;49.662;8.408;2024-03-02T09:09:14;35.83;;;32.60;;
69172;SDS011;56280;49.662;8.408;2024-03-02T09:11:40;32.63;;;29.53;;
69172;SDS011;56280;49.662;8.408;2024-03-02T09:14:05;34.93;;;31.57;;
69172;SDS011;56280;49.662;8.408;2024-03-02T09:16:30;30.90;;;27.97;;
69172;SDS011;56280;49.662;8.408;2024-03-02T09:18:56;24.20;;;21.70;;
69172;SDS011;56280;49.662;8.408;2024-03-02T09:21:21;25.50;;;20.90;;
69172;SDS011;56280;49.662;8.408;2024-03-02T09:23:47;19.88;;;17.35;;
69172;SDS011;56280;49.662;8.408;2024-03-02T09:26:13;19.80;;;14.67;;
69172;SDS011;56280;49.662;8.408;2024-03-02T09:28:42;17.88;;;11.75;;
69172;SDS011;56280;49.662;8.408;2024-03-02T09:31:07;16.52;;;10.50;;
69172;SDS011;56280;49.662;8.408;2024-03-02T09:33:33;17.30;;;11.10;;
69172;SDS011;56280;49.662;8.408;2024-03-02T09:35:58;14.40;;;9.93;;
69172;SDS011;56280;49.662;8.408;2024-03-02T09:38:23;13.33;;;8.40;;
69172;SDS011;56280;49.662;8.408;2024-03-02T09:40:48;12.47;;;8.10;;
69172;SDS011;56280;49.662;8.408;2024-03-02T09:43:14;13.02;;;8.18;;
69172;SDS011;56280;49.662;8.408;2024-03-02T09:45:39;13.15;;;8.52;;
69172;SDS011;56280;49.662;8.408;2024-03-02T09:48:05;12.73;;;7.95;;
69172;SDS011;56280;49.662;8.408;2024-03-02T09:50:30;10.77;;;7.17;;
69172;SDS011;56280;49.662;8.408;2024-03-02T09:52:56;10.87;;;7.00;;
69172;SDS011;56280;49.662;8.408;2024-03-02T09:55:21;11.47;;;6.93;;
69172;SDS011;56280;49.662;8.408;2024-03-02T09:57:47;10.33;;;6.43;;
69172;SDS011;56280;49.662;8.408;2024-03-02T10:00:15;11.55;;;7.03;;
69172;SDS011;56280;49.662;8.408;2024-03-02T10:02:40;10.90;;;6.73;;
69172;SDS011;56280;49.662;8.408;2024-03-02T10:05:07;11.52;;;7.18;;
69172;SDS011;56280;49.662;8.408;2024-03-02T10:07:33;10.38;;;6.85;;
69172;SDS011;56280;49.662;8.408;2024-03-02T10:09:58;11.03;;;6.10;;
69172;SDS011;56280;49.662;8.408;2024-03-02T10:12:38;9.90;;;5.75;;
69172;SDS011;56280;49.662;8.408;2024-03-02T10:15:04;9.63;;;6.00;;
69172;SDS011;56280;49.662;8.408;2024-03-02T10:17:31;9.63;;;6.00;;
69172;SDS011;56280;49.662;8.408;2024-03-02T10:19:56;9.70;;;5.73;;
69172;SDS011;56280;49.662;8.408;2024-03-02T10:22:22;9.07;;;5.63;;
69172;SDS011;56280;49.662;8.408;2024-03-02T10:24:48;9.43;;;6.00;;
69172;SDS011;56280;49.662;8.408;2024-03-02T10:27:17;8.83;;;5.93;;
69172;SDS011;56280;49.662;8.408;2024-03-02T10:29:45;10.18;;;5.70;;
69172;SDS011;56280;49.662;8.408;2024-03-02T10:32:11;9.30;;;5.40;;
69172;SDS011;56280;49.662;8.408;2024-03-02T10:34:37;9.93;;;6.13;;
69172;SDS011;56280;49.662;8.408;2024-03-02T10:37:05;9.50;;;5.53;;
69172;SDS011;56280;49.662;8.408;2024-03-02T10:39:32;9.73;;;5.63;;
69172;SDS011;56280;49.662;8.408;2024-03-02T10:42:00;8.40;;;5.20;;
69172;SDS011;56280;49.662;8.408;2024-03-02T10:44:28;8.50;;;4.63;;
69172;SDS011;56280;49.662;8.408;2024-03-02T10:46:55;9.35;;;5.70;;
69172;SDS011;56280;49.662;8.408;2024-03-02T10:49:21;7.97;;;4.75;;
69172;SDS011;56280;49.662;8.408;2024-03-02T10:51:48;8.88;;;4.75;;
69172;SDS011;56280;49.662;8.408;2024-03-02T10:54:13;8.77;;;4.77;;
69172;SDS011;56280;49.662;8.408;2024-03-02T10:56:39;8.73;;;5.00;;
69172;SDS011;56280;49.662;8.408;2024-03-02T10:59:26;8.10;;;4.57;;
69172;SDS011;56280;49.662;8.408;2024-03-02T11:02:03;8.63;;;4.80;;
69172;SDS011;56280;49.662;8.408;2024-03-02T11:04:29;9.27;;;5.07;;
69172;SDS011;56280;49.662;8.408;2024-03-02T11:06:58;8.37;;;4.90;;
69172;SDS011;56280;49.662;8.408;2024-03-02T11:09:26;8.23;;;5.15;;
69172;SDS011;56280;49.662;8.408;2024-03-02T11:14:46;8.10;;;4.50;;
69172;SDS011;56280;49.662;8.408;2024-03-02T11:17:13;7.83;;;4.50;;
69172;SDS011;56280;49.662;8.408;2024-03-02T11:19:43;7.85;;;4.35;;
69172;SDS011;56280;49.662;8.408;2024-03-02T11:22:10;9.93;;;4.50;;
69172;SDS011;56280;49.662;8.408;2024-03-02T11:24:37;8.55;;;4.63;;
69172;SDS011;56280;49.662;8.408;2024-03-02T11:27:03;9.00;;;4.67;;
69172;SDS011;56280;49.662;8.408;2024-03-02T11:32:06;6.75;;;4.10;;
69172;SDS011;56280;49.662;8.408;2024-03-02T11:34:38;6.78;;;4.28;;
69172;SDS011;56280;49.662;8.408;2024-03-02T11:37:10;6.70;;;3.70;;
69172;SDS011;56280;49.662;8.408;2024-03-02T11:39:35;7.57;;;4.20;;
69172;SDS011;56280;49.662;8.408;2024-03-02T11:42:00;6.90;;;4.03;;
69172;SDS011;56280;49.662;8.408;2024-03-02T11:44:29;7.10;;;4.17;;
69172;SDS011;56280;49.662;8.408;2024-03-02T11:46:58;7.95;;;4.30;;
69172;SDS011;56280;49.662;8.408;2024-03-02T11:49:37;5.13;;;3.40;;
69172;SDS011;56280;49.662;8.408;2024-03-02T11:52:04;6.50;;;3.80;;
69172;SDS011;56280;49.662;8.408;2024-03-02T11:54:30;6.65;;;3.92;;
69172;SDS011;56280;49.662;8.408;2024-03-02T11:56:59;6.65;;;3.92;;
69172;SDS011;56280;49.662;8.408;2024-03-02T11:59:27;6.90;;;3.88;;
69172;SDS011;56280;49.662;8.408;2024-03-02T12:01:54;5.77;;;3.80;;
69172;SDS011;56280;49.662;8.408;2024-03-02T12:04:19;6.53;;;4.07;;
69172;SDS011;56280;49.662;8.408;2024-03-02T12:06:46;7.95;;;4.18;;
69172;SDS011;56280;49.662;8.408;2024-03-02T12:09:11;7.03;;;3.83;;
69172;SDS011;56280;49.662;8.408;2024-03-02T12:11:37;6.63;;;4.13;;
69172;SDS011;56280;49.662;8.408;2024-03-02T12:14:02;6.93;;;3.90;;
69172;SDS011;56280;49.662;8.408;2024-03-02T12:16:29;5.73;;;3.20;;
69172;SDS011;56280;49.662;8.408;2024-03-02T12:18:54;4.97;;;2.80;;
69172;SDS011;56280;49.662;8.408;2024-03-02T12:21:19;4.97;;;2.67;;
69172;SDS011;56280;49.662;8.408;2024-03-02T12:23:45;4.77;;;2.60;;
69172;SDS011;56280;49.662;8.408;2024-03-02T12:26:10;4.30;;;2.90;;
69172;SDS011;56280;49.662;8.408;2024-03-02T12:28:35;5.57;;;3.03;;
69172;SDS011;56280;49.662;8.408;2024-03-02T12:31:01;4.43;;;2.40;;
69172;SDS011;56280;49.662;8.408;2024-03-02T12:33:26;5.53;;;2.67;;
69172;SDS011;56280;49.662;8.408;2024-03-02T12:35:52;5.35;;;2.80;;
69172;SDS011;56280;49.662;8.408;2024-03-02T12:38:17;5.30;;;3.10;;
69172;SDS011;56280;49.662;8.408;2024-03-02T12:40:43;4.60;;;2.70;;
69172;SDS011;56280;49.662;8.408;2024-03-02T12:43:08;4.17;;;2.60;;
69172;SDS011;56280;49.662;8.408;2024-03-02T12:45:34;4.43;;;2.40;;
69172;SDS011;56280;49.662;8.408;2024-03-02T12:48:00;4.43;;;2.20;;
69172;SDS011;56280;49.662;8.408;2024-03-02T12:50:26;4.70;;;2.47;;
69172;SDS011;56280;49.662;8.408;2024-03-02T12:52:52;4.17;;;2.43;;
69172;SDS011;56280;49.662;8.408;2024-03-02T12:55:19;4.20;;;2.25;;
69172;SDS011;56280;49.662;8.408;2024-03-02T12:57:46;3.92;;;2.22;;
69172;SDS011;56280;49.662;8.408;2024-03-02T13:00:12;3.90;;;2.13;;
69172;SDS011;56280;49.662;8.408;2024-03-02T13:02:39;3.30;;;1.90;;
69172;SDS011;56280;49.662;8.408;2024-03-02T13:05:06;4.30;;;2.25;;
69172;SDS011;56280;49.662;8.408;2024-03-02T13:07:31;3.53;;;2.10;;
69172;SDS011;56280;49.662;8.408;2024-03-02T13:09:58;3.72;;;1.90;;
69172;SDS011;56280;49.662;8.408;2024-03-02T13:12:24;3.58;;;1.92;;
69172;SDS011;56280;49.662;8.408;2024-03-02T13:14:53;3.33;;;2.00;;
69172;SDS011;56280;49.662;8.408;2024-03-02T13:17:19;3.13;;;1.60;;
69172;SDS011;56280;49.662;8.408;2024-03-02T13:19:51;3.72;;;1.85;;
69172;SDS011;56280;49.662;8.408;2024-03-02T13:22:18;3.70;;;1.70;;
69172;SDS011;56280;49.662;8.408;2024-03-02T13:24:43;3.00;;;1.80;;
69172;SDS011;56280;49.662;8.408;2024-03-02T13:27:09;2.97;;;1.70;;
69172;SDS011;56280;49.662;8.408;2024-03-02T13:29:34;3.13;;;1.90;;
69172;SDS011;56280;49.662;8.408;2024-03-02T13:31:59;3.30;;;1.83;;
69172;SDS011;56280;49.662;8.408;2024-03-02T13:34:24;4.10;;;1.97;;
69172;SDS011;56280;49.662;8.408;2024-03-02T13:36:50;3.40;;;1.50;;
69172;SDS011;56280;49.662;8.408;2024-03-02T13:39:15;2.97;;;1.63;;
69172;SDS011;56280;49.662;8.408;2024-03-02T13:41:41;2.80;;;1.30;;
69172;SDS011;56280;49.662;8.408;2024-03-02T13:44:06;3.23;;;1.80;;
69172;SDS011;56280;49.662;8.408;2024-03-02T13:46:32;3.47;;;1.73;;
69172;SDS011;56280;49.662;8.408;2024-03-02T13:48:57;2.93;;;1.30;;
69172;SDS011;56280;49.662;8.408;2024-03-02T13:51:23;3.70;;;1.60;;
69172;SDS011;56280;49.662;8.408;2024-03-02T13:53:48;2.40;;;1.20;;
69172;SDS011;56280;49.662;8.408;2024-03-02T13:56:14;2.60;;;1.40;;
69172;SDS011;56280;49.662;8.408;2024-03-02T13:58:39;2.97;;;1.50;;
69172;SDS011;56280;49.662;8.408;2024-03-02T14:01:05;3.10;;;1.50;;
69172;SDS011;56280;49.662;8.408;2024-03-02T14:03:30;3.00;;;1.60;;
69172;SDS011;56280;49.662;8.408;2024-03-02T14:05:56;2.65;;;1.27;;
69172;SDS011;56280;49.662;8.408;2024-03-02T14:08:21;2.90;;;1.60;;
69172;SDS011;56280;49.662;8.408;2024-03-02T14:10:47;2.63;;;1.50;;
69172;SDS011;56280;49.662;8.408;2024-03-02T14:13:12;2.77;;;1.57;;
69172;SDS011;56280;49.662;8.408;2024-03-02T14:15:37;2.40;;;1.23;;
69172;SDS011;56280;49.662;8.408;2024-03-02T14:18:05;3.28;;;1.58;;
69172;SDS011;56280;49.662;8.408;2024-03-02T14:20:31;3.00;;;1.40;;
69172;SDS011;56280;49.662;8.408;2024-03-02T14:22:57;2.65;;;1.50;;
69172;SDS011;56280;49.662;8.408;2024-03-02T14:25:24;2.65;;;1.30;;
69172;SDS011;56280;49.662;8.408;2024-03-02T14:27:49;2.90;;;1.37;;
69172;SDS011;56280;49.662;8.408;2024-03-02T14:30:14;2.93;;;1.37;;
69172;SDS011;56280;49.662;8.408;2024-03-02T14:32:40;2.67;;;1.20;;
69172;SDS011;56280;49.662;8.408;2024-03-02T14:35:05;3.27;;;1.67;;